MPBO Airport Information

Runway Information
Runway 08 Length 4921 ft width 85 ft
Elevation 7 ft Threshold ft Heading 87
Runway 26 Length 4921 ft Width 85 ft
Elevation 7 ft Threshold ft Heading 267
Airport Frequencies
Type ACC Name PANAMA CON Frequency 133 MHZ
Type FSS Name PANAMA RDO Frequency 135.2 MHZ
Type RDO Name RDO Frequency 123.7 MHZ
Airport Navaids
Type VOR-DME Name Bocas Del Toro Frequency 114900 KHZ
Airport Weather Information & NOTAM
ADDS - METARS form results

(1643 UTC 19 August 2022)
Data provider http://aviationweather.gov/metar/data/
 
METAR text: MPBO 191600Z 26007KT 9999 SCT018 SCT080 29/25 Q1012
Conditions at: MPBO (BOCAS DEL TORO , PA) observed 1600 UTC 19 August 2022
Temperature: 29.0°C (84°F)
Dewpoint: 25.0°C (77°F) [RH = 79%]
Pressure (altimeter): 29.88 inches Hg (1012.0 mb)
Winds: from the W (260 degrees) at 8 MPH (7 knots; 3.6 m/s)
Visibility: 6 or more miles (10+ km)
Ceiling: at least 12,000 feet AGL
Clouds: scattered clouds at 1800 feet AGL
scattered clouds at 8000 feet AGL
Weather: no significant weather observed at this time